createdAt,value
2022-12-27T00:00:32.835Z,7.25
2022-12-27T00:05:34.738Z,7.29
2022-12-27T00:10:36.854Z,7.39
2022-12-27T00:15:38.720Z,7.52
2022-12-27T00:20:40.554Z,7.42
2022-12-27T00:25:42.400Z,7.14
2022-12-27T00:30:44.287Z,7.07
2022-12-27T00:35:46.137Z,7.14
2022-12-27T00:40:48.432Z,7.16
2022-12-27T00:45:50.651Z,7.14
2022-12-27T00:51:01.439Z,7.35
2022-12-27T00:56:24.894Z,7.37
2022-12-27T01:01:30.243Z,7.46
2022-12-27T01:06:33.848Z,7.44
2022-12-27T01:11:35.707Z,7.39
2022-12-27T01:16:38.651Z,7.34
2022-12-27T01:21:40.642Z,7.33
2022-12-27T01:26:42.485Z,7.30
2022-12-27T01:31:44.384Z,7.18
2022-12-27T01:36:46.386Z,7.18
2022-12-27T01:42:06.949Z,7.31
2022-12-27T01:47:37.965Z,7.10
2022-12-27T01:53:05.200Z,7.10
2022-12-27T01:58:14.926Z,7.19
2022-12-27T02:03:22.556Z,7.20
2022-12-27T02:08:39.987Z,7.12
2022-12-27T02:13:45.700Z,7.05
2022-12-27T02:18:47.642Z,6.87
2022-12-27T02:24:07.639Z,6.70
2022-12-27T02:29:26.536Z,6.66
2022-12-27T02:34:38.818Z,6.60
2022-12-27T02:39:47.707Z,6.59
2022-12-27T02:45:18.744Z,6.48
2022-12-27T02:50:39.603Z,6.37
2022-12-27T02:56:47.537Z,6.32
2022-12-27T03:02:39.434Z,6.31
2022-12-27T03:08:12.969Z,6.22
2022-12-27T03:14:06.091Z,6.30
2022-12-27T03:19:39.236Z,6.22
2022-12-27T03:25:00.403Z,6.14
2022-12-27T03:30:26.416Z,6.07
2022-12-27T03:35:31.629Z,5.99
2022-12-27T03:41:18.931Z,5.96
2022-12-27T03:46:33.934Z,5.83
2022-12-27T03:52:02.745Z,5.73
2022-12-27T03:57:09.576Z,5.67
2022-12-27T04:02:12.088Z,5.61
2022-12-27T04:07:15.010Z,5.66
2022-12-27T04:12:35.360Z,5.59
2022-12-27T04:17:55.876Z,5.54
2022-12-27T04:23:16.694Z,5.55
2022-12-27T04:28:37.443Z,5.49
2022-12-27T04:33:57.677Z,5.36
2022-12-27T04:38:59.363Z,5.30
2022-12-27T04:44:19.962Z,5.26
2022-12-27T04:49:44.183Z,5.13
2022-12-27T04:54:58.391Z,5.11
2022-12-27T05:00:19.140Z,5.08
2022-12-27T05:05:21.723Z,4.98
2022-12-27T05:10:41.930Z,5.02
2022-12-27T05:15:43.707Z,4.98
2022-12-27T05:20:46.305Z,5.02
2022-12-27T05:25:48.228Z,5.04
2022-12-27T05:30:50.152Z,5.12
2022-12-27T05:35:51.995Z,5.24
2022-12-27T05:41:01.679Z,5.29
2022-12-27T05:46:06.475Z,5.29
2022-12-27T05:51:13.567Z,5.29
2022-12-27T05:56:18.541Z,5.37
2022-12-27T06:01:20.992Z,5.37
2022-12-27T06:06:22.865Z,5.39
2022-12-27T06:11:24.720Z,5.45
2022-12-27T06:16:26.604Z,5.43
2022-12-27T06:21:29.824Z,5.43
2022-12-27T06:26:31.708Z,5.34
2022-12-27T06:31:33.606Z,5.27
2022-12-27T06:36:35.443Z,5.21
2022-12-27T06:41:37.288Z,5.22
2022-12-27T06:46:39.122Z,5.14
2022-12-27T06:51:40.944Z,5.13
2022-12-27T06:56:42.896Z,5.10
2022-12-27T07:01:44.893Z,5.06
2022-12-27T07:06:46.885Z,5.01
2022-12-27T07:11:48.885Z,4.99
2022-12-27T07:16:50.760Z,5.04
2022-12-27T07:21:52.633Z,5.07
2022-12-27T07:26:54.499Z,5.11
2022-12-27T07:31:56.400Z,5.15
2022-12-27T07:36:58.250Z,5.16
2022-12-27T07:42:04.814Z,5.22
2022-12-27T07:47:12.461Z,5.25
2022-12-27T07:52:14.287Z,5.30
2022-12-27T07:57:16.106Z,5.32
2022-12-27T08:02:17.978Z,5.47
2022-12-27T08:07:20.272Z,5.58
2022-12-27T08:12:22.161Z,5.63
2022-12-27T08:17:27.924Z,5.67
2022-12-27T08:22:29.739Z,5.71
2022-12-27T08:27:31.572Z,5.93
2022-12-27T08:32:33.485Z,6.21
2022-12-27T08:37:35.434Z,6.27
2022-12-27T08:42:37.247Z,6.30
2022-12-27T08:47:39.579Z,6.32
2022-12-27T08:52:41.442Z,6.27
2022-12-27T08:57:43.290Z,6.23
2022-12-27T09:02:46.030Z,6.24
2022-12-27T09:07:48.689Z,6.32
2022-12-27T09:12:50.850Z,6.37
2022-12-27T09:17:52.697Z,6.40
2022-12-27T09:22:54.834Z,6.35
2022-12-27T09:27:56.799Z,6.42
2022-12-27T09:32:58.941Z,6.58
2022-12-27T09:38:01.693Z,6.82
2022-12-27T09:43:20.640Z,7.10
2022-12-27T09:48:37.006Z,7.32
2022-12-27T09:53:56.281Z,7.38
2022-12-27T09:59:21.209Z,7.46
2022-12-27T10:04:23.462Z,7.55
2022-12-27T10:09:49.479Z,7.53
2022-12-27T10:14:59.827Z,7.56
2022-12-27T10:25:41.388Z,7.65
2022-12-27T10:30:44.168Z,7.80
2022-12-27T10:35:46.827Z,7.75
2022-12-27T10:40:59.216Z,7.82
2022-12-27T10:46:28.983Z,7.88
2022-12-27T10:51:37.576Z,7.93
2022-12-27T10:56:45.063Z,7.98
2022-12-27T11:01:50.052Z,7.96
2022-12-27T11:07:13.770Z,8.09
2022-12-27T11:12:21.929Z,8.17
2022-12-27T11:17:42.349Z,8.28
2022-12-27T11:22:51.833Z,8.33
2022-12-27T11:27:58.754Z,8.38
2022-12-27T11:33:07.168Z,8.46
2022-12-27T11:38:28.032Z,8.38
2022-12-27T11:43:35.863Z,8.33
2022-12-27T11:48:42.333Z,8.26
2022-12-27T11:54:11.124Z,8.21
2022-12-27T11:59:30.235Z,8.26
2022-12-27T12:04:41.251Z,8.41
2022-12-27T12:10:01.818Z,8.44
2022-12-27T12:15:13.795Z,8.46
2022-12-27T12:20:37.003Z,8.45
2022-12-27T12:26:16.092Z,8.49
2022-12-27T12:32:12.159Z,8.36
2022-12-27T12:37:19.652Z,8.19
2022-12-27T12:42:57.938Z,8.22
2022-12-27T12:48:08.952Z,8.21
2022-12-27T12:53:27.552Z,8.10
2022-12-27T12:58:35.255Z,8.04
2022-12-27T13:03:55.574Z,8.09
2022-12-27T13:09:28.265Z,8.11
2022-12-27T13:14:48.830Z,8.10
2022-12-27T13:20:27.564Z,8.15
2022-12-27T13:25:40.456Z,8.16
2022-12-27T13:30:52.304Z,8.16
2022-12-27T13:36:12.944Z,8.11
2022-12-27T13:41:48.020Z,8.08
2022-12-27T13:47:29.847Z,8.10
2022-12-27T13:52:59.219Z,8.14
2022-12-27T13:58:23.585Z,8.07
2022-12-27T14:03:43.657Z,8.09
2022-12-27T14:09:10.479Z,8.09
2022-12-27T14:14:19.563Z,8.03
2022-12-27T14:19:43.593Z,8.06
2022-12-27T14:25:22.552Z,8.00
2022-12-27T14:30:59.830Z,7.91
2022-12-27T14:36:32.367Z,7.73
2022-12-27T14:41:52.404Z,7.75
2022-12-27T14:47:46.902Z,7.66
2022-12-27T14:52:48.697Z,7.69
2022-12-27T14:58:08.734Z,7.61
2022-12-27T15:03:49.223Z,7.56
2022-12-27T15:09:07.675Z,7.57
2022-12-27T15:14:38.558Z,7.55
2022-12-27T15:19:49.046Z,7.53
2022-12-27T15:25:01.501Z,7.49
2022-12-27T15:30:18.576Z,7.46
2022-12-27T15:35:39.070Z,7.41
2022-12-27T15:40:46.156Z,7.34
2022-12-27T15:46:35.717Z,7.28
2022-12-27T15:51:43.805Z,7.19
2022-12-27T15:56:51.735Z,7.09
2022-12-27T16:02:18.027Z,7.04
2022-12-27T16:07:38.495Z,6.95
2022-12-27T16:12:40.346Z,6.90
2022-12-27T16:18:28.212Z,6.76
2022-12-27T16:23:39.880Z,6.78
2022-12-27T16:28:51.137Z,6.74
2022-12-27T16:33:55.264Z,6.77
2022-12-27T16:39:12.459Z,6.71
2022-12-27T16:44:24.964Z,6.49
2022-12-27T16:49:48.067Z,6.24
2022-12-27T16:55:22.356Z,6.20
2022-12-27T17:00:42.333Z,6.22
2022-12-27T17:06:21.717Z,6.21
2022-12-27T17:11:21.961Z,6.12
2022-12-27T17:16:28.549Z,6.18
2022-12-27T17:21:34.490Z,6.15
2022-12-27T17:26:52.049Z,6.20
2022-12-27T17:32:08.811Z,6.26
2022-12-27T17:37:12.047Z,6.30
2022-12-27T17:42:55.617Z,6.32
2022-12-27T17:48:06.481Z,6.28
2022-12-27T17:53:33.167Z,6.30
2022-12-27T17:58:35.392Z,6.28
2022-12-27T18:03:43.257Z,6.32
2022-12-27T18:08:49.035Z,6.32
2022-12-27T18:13:54.375Z,6.28
2022-12-27T18:19:00.025Z,6.27
2022-12-27T18:24:02.171Z,6.30
2022-12-27T18:29:05.248Z,6.36
2022-12-27T18:34:14.965Z,6.28
2022-12-27T18:39:40.302Z,6.35
2022-12-27T18:44:53.071Z,6.41
2022-12-27T18:50:01.483Z,6.33
2022-12-27T18:55:26.927Z,6.33
2022-12-27T19:00:29.463Z,6.35
2022-12-27T19:05:31.397Z,6.33
2022-12-27T19:10:33.678Z,6.36
2022-12-27T19:15:42.140Z,6.41
2022-12-27T19:20:58.869Z,6.42
2022-12-27T19:26:05.053Z,6.42
2022-12-27T19:31:21.908Z,6.48
2022-12-27T19:36:31.705Z,6.52
2022-12-27T19:41:35.065Z,6.48
2022-12-27T19:46:37.483Z,6.47
2022-12-27T19:51:41.814Z,6.47
2022-12-27T19:56:44.404Z,6.46
2022-12-27T20:01:47.351Z,6.46
2022-12-27T20:06:50.144Z,6.43
2022-12-27T20:11:52.284Z,6.41
2022-12-27T20:16:54.386Z,6.42
2022-12-27T20:21:56.687Z,6.38
2022-12-27T20:26:59.728Z,6.35
2022-12-27T20:32:01.878Z,6.32
2022-12-27T20:37:04.924Z,6.33
2022-12-27T20:42:07.429Z,6.31
2022-12-27T20:47:09.786Z,6.35
2022-12-27T20:52:12.114Z,6.35
2022-12-27T20:57:14.509Z,6.37
2022-12-27T21:02:17.126Z,6.35
2022-12-27T21:07:19.491Z,6.35
2022-12-27T21:12:21.916Z,6.32
2022-12-27T21:17:24.034Z,6.32
2022-12-27T21:22:26.002Z,6.31
2022-12-27T21:27:28.065Z,6.41
2022-12-27T21:32:30.034Z,6.44
2022-12-27T21:37:31.873Z,6.48
2022-12-27T21:42:33.735Z,6.51
2022-12-27T21:47:36.226Z,6.53
2022-12-27T21:52:38.066Z,6.42
2022-12-27T21:57:40.062Z,6.43
2022-12-27T22:02:42.028Z,6.43
2022-12-27T22:07:44.244Z,6.45
2022-12-27T22:12:46.087Z,6.44
2022-12-27T22:17:48.020Z,6.44
2022-12-27T22:22:49.955Z,6.44
2022-12-27T22:27:51.808Z,6.44
2022-12-27T22:32:54.435Z,6.46
2022-12-27T22:37:56.437Z,6.48
2022-12-27T22:42:58.934Z,6.51
2022-12-27T22:48:00.819Z,6.52
2022-12-27T22:53:03.872Z,6.56
2022-12-27T22:58:05.854Z,6.60
2022-12-27T23:03:07.830Z,6.60
2022-12-27T23:08:09.728Z,6.66
2022-12-27T23:13:11.663Z,6.69
2022-12-27T23:18:13.620Z,6.73
2022-12-27T23:23:15.580Z,6.74
2022-12-27T23:28:17.730Z,6.76
2022-12-27T23:33:19.688Z,6.77
2022-12-27T23:38:21.640Z,6.79
2022-12-27T23:43:55.246Z,6.81
2022-12-27T23:48:46.889Z,6.73
2022-12-27T23:53:48.863Z,6.69
2022-12-27T23:58:53.741Z,6.65
